Weather at Brunei International Airport

Public forecast

Using degrees Celsius for public forecast. Weather courtesy of forecast.io.

Current aviation weather report (METAR) for Brunei International Airport

2024/03/03 09:30 (retrieved 19 minutes ago)

WBSB 030930Z 36012KT 9999 FEW016 BKN300 29/26 Q1008 NOSIG

Aviation forecast (TAF) for Brunei International Airport

2024/03/03 06:12 (retrieved 4 hours ago)

TAF WBSB 030500Z 0306/0412 01008KT 9999 FEW015 FEW016CB BECMG 0312/0314 04005KT FEW014